sensor_id;sensor_type;location;lat;lon;timestamp;temperature;humidity
45803;DHT22;31504;51.716;9.184;2023-05-31T00:02:54;20.20;54.80
45803;DHT22;31504;51.716;9.184;2023-05-31T00:05:56;20.20;54.80
45803;DHT22;31504;51.716;9.184;2023-05-31T00:08:56;20.20;54.70
45803;DHT22;31504;51.716;9.184;2023-05-31T00:11:57;20.20;54.80
45803;DHT22;31504;51.716;9.184;2023-05-31T00:14:57;20.20;54.80
45803;DHT22;31504;51.716;9.184;2023-05-31T00:17:58;20.20;54.80
45803;DHT22;31504;51.716;9.184;2023-05-31T00:20:58;20.20;54.80
45803;DHT22;31504;51.716;9.184;2023-05-31T00:23:58;20.20;54.80
45803;DHT22;31504;51.716;9.184;2023-05-31T00:26:59;20.20;54.80
45803;DHT22;31504;51.716;9.184;2023-05-31T00:30:00;20.20;54.80
45803;DHT22;31504;51.716;9.184;2023-05-31T00:33:01;20.20;54.80
45803;DHT22;31504;51.716;9.184;2023-05-31T00:36:01;20.20;54.80
45803;DHT22;31504;51.716;9.184;2023-05-31T00:39:02;20.20;54.80
45803;DHT22;31504;51.716;9.184;2023-05-31T00:42:02;20.20;54.90
45803;DHT22;31504;51.716;9.184;2023-05-31T00:45:04;20.20;54.80
45803;DHT22;31504;51.716;9.184;2023-05-31T00:48:05;20.20;54.90
45803;DHT22;31504;51.716;9.184;2023-05-31T00:51:05;20.20;54.90
45803;DHT22;31504;51.716;9.184;2023-05-31T00:54:06;20.20;54.90
45803;DHT22;31504;51.716;9.184;2023-05-31T00:57:07;20.20;54.90
45803;DHT22;31504;51.716;9.184;2023-05-31T01:00:08;20.20;54.90
45803;DHT22;31504;51.716;9.184;2023-05-31T01:03:09;20.20;54.90
45803;DHT22;31504;51.716;9.184;2023-05-31T01:06:09;20.20;54.90
45803;DHT22;31504;51.716;9.184;2023-05-31T01:09:10;20.20;54.90
45803;DHT22;31504;51.716;9.184;2023-05-31T01:12:20;20.20;55.00
45803;DHT22;31504;51.716;9.184;2023-05-31T01:15:23;20.20;55.00
45803;DHT22;31504;51.716;9.184;2023-05-31T01:21:29;20.20;55.00
45803;DHT22;31504;51.716;9.184;2023-05-31T01:27:53;20.20;55.00
45803;DHT22;31504;51.716;9.184;2023-05-31T01:30:56;20.20;55.00
45803;DHT22;31504;51.716;9.184;2023-05-31T01:33:57;20.20;55.00
45803;DHT22;31504;51.716;9.184;2023-05-31T01:36:58;20.20;55.00
45803;DHT22;31504;51.716;9.184;2023-05-31T01:39:59;20.20;55.00
45803;DHT22;31504;51.716;9.184;2023-05-31T01:42:59;20.20;55.00
45803;DHT22;31504;51.716;9.184;2023-05-31T01:46:00;20.20;55.10
45803;DHT22;31504;51.716;9.184;2023-05-31T01:49:01;20.20;55.10
45803;DHT22;31504;51.716;9.184;2023-05-31T01:52:03;20.20;55.10
45803;DHT22;31504;51.716;9.184;2023-05-31T01:55:05;20.20;55.10
45803;DHT22;31504;51.716;9.184;2023-05-31T01:58:06;20.20;55.10
45803;DHT22;31504;51.716;9.184;2023-05-31T02:01:06;20.20;55.10
45803;DHT22;31504;51.716;9.184;2023-05-31T02:04:07;20.20;55.10
45803;DHT22;31504;51.716;9.184;2023-05-31T02:07:08;20.20;55.10
45803;DHT22;31504;51.716;9.184;2023-05-31T02:10:09;20.20;55.10
45803;DHT22;31504;51.716;9.184;2023-05-31T02:13:10;20.20;55.10
45803;DHT22;31504;51.716;9.184;2023-05-31T02:16:10;20.20;55.10
45803;DHT22;31504;51.716;9.184;2023-05-31T02:19:11;20.20;55.10
45803;DHT22;31504;51.716;9.184;2023-05-31T02:22:14;20.20;55.20
45803;DHT22;31504;51.716;9.184;2023-05-31T02:25:14;20.20;55.10
45803;DHT22;31504;51.716;9.184;2023-05-31T02:28:16;20.20;55.20
45803;DHT22;31504;51.716;9.184;2023-05-31T02:31:16;20.20;55.20
45803;DHT22;31504;51.716;9.184;2023-05-31T02:34:17;20.20;55.20
45803;DHT22;31504;51.716;9.184;2023-05-31T02:37:18;20.20;55.10
45803;DHT22;31504;51.716;9.184;2023-05-31T02:40:19;20.20;55.10
45803;DHT22;31504;51.716;9.184;2023-05-31T02:43:19;20.20;55.20
45803;DHT22;31504;51.716;9.184;2023-05-31T02:46:19;20.20;55.10
45803;DHT22;31504;51.716;9.184;2023-05-31T02:49:20;20.20;55.10
45803;DHT22;31504;51.716;9.184;2023-05-31T02:52:20;20.20;55.10
45803;DHT22;31504;51.716;9.184;2023-05-31T02:55:24;20.20;55.10
45803;DHT22;31504;51.716;9.184;2023-05-31T02:58:25;20.20;55.10
45803;DHT22;31504;51.716;9.184;2023-05-31T03:01:26;20.20;55.20
45803;DHT22;31504;51.716;9.184;2023-05-31T03:04:26;20.20;55.20
45803;DHT22;31504;51.716;9.184;2023-05-31T03:07:27;20.20;55.10
45803;DHT22;31504;51.716;9.184;2023-05-31T03:10:27;20.20;55.10
45803;DHT22;31504;51.716;9.184;2023-05-31T03:13:27;20.20;55.20
45803;DHT22;31504;51.716;9.184;2023-05-31T03:16:28;20.20;55.20
45803;DHT22;31504;51.716;9.184;2023-05-31T03:19:28;20.20;55.20
45803;DHT22;31504;51.716;9.184;2023-05-31T03:22:29;20.20;55.20
45803;DHT22;31504;51.716;9.184;2023-05-31T03:25:29;20.20;55.20
45803;DHT22;31504;51.716;9.184;2023-05-31T03:28:30;20.20;55.20
45803;DHT22;31504;51.716;9.184;2023-05-31T03:31:31;20.20;55.20
45803;DHT22;31504;51.716;9.184;2023-05-31T03:34:32;20.20;55.10
45803;DHT22;31504;51.716;9.184;2023-05-31T03:37:33;20.20;55.10
45803;DHT22;31504;51.716;9.184;2023-05-31T03:40:34;20.20;55.10
45803;DHT22;31504;51.716;9.184;2023-05-31T03:43:34;20.20;55.20
45803;DHT22;31504;51.716;9.184;2023-05-31T03:46:34;20.20;55.20
45803;DHT22;31504;51.716;9.184;2023-05-31T03:49:35;20.20;55.20
45803;DHT22;31504;51.716;9.184;2023-05-31T03:52:35;20.20;55.20
45803;DHT22;31504;51.716;9.184;2023-05-31T03:55:37;20.20;55.20
45803;DHT22;31504;51.716;9.184;2023-05-31T03:58:38;20.20;55.20
45803;DHT22;31504;51.716;9.184;2023-05-31T04:01:39;20.20;55.20
45803;DHT22;31504;51.716;9.184;2023-05-31T04:04:40;20.20;55.20
45803;DHT22;31504;51.716;9.184;2023-05-31T04:07:40;20.20;55.20
45803;DHT22;31504;51.716;9.184;2023-05-31T04:10:41;20.20;55.10
45803;DHT22;31504;51.716;9.184;2023-05-31T04:13:41;20.20;55.20
45803;DHT22;31504;51.716;9.184;2023-05-31T04:16:42;20.20;55.20
45803;DHT22;31504;51.716;9.184;2023-05-31T04:19:42;20.20;55.20
45803;DHT22;31504;51.716;9.184;2023-05-31T04:22:42;20.10;55.20
45803;DHT22;31504;51.716;9.184;2023-05-31T04:25:43;20.20;55.20
45803;DHT22;31504;51.716;9.184;2023-05-31T04:28:44;20.10;55.10
45803;DHT22;31504;51.716;9.184;2023-05-31T04:31:45;20.10;55.10
45803;DHT22;31504;51.716;9.184;2023-05-31T04:34:45;20.20;55.20
45803;DHT22;31504;51.716;9.184;2023-05-31T04:37:48;20.20;55.20
45803;DHT22;31504;51.716;9.184;2023-05-31T04:40:53;20.20;55.20
45803;DHT22;31504;51.716;9.184;2023-05-31T04:43:54;20.20;55.20
45803;DHT22;31504;51.716;9.184;2023-05-31T04:46:56;20.20;55.20
45803;DHT22;31504;51.716;9.184;2023-05-31T04:49:57;20.20;55.20
45803;DHT22;31504;51.716;9.184;2023-05-31T04:52:58;20.20;55.20
45803;DHT22;31504;51.716;9.184;2023-05-31T04:55:58;20.20;55.20
45803;DHT22;31504;51.716;9.184;2023-05-31T04:59:04;20.20;55.20
45803;DHT22;31504;51.716;9.184;2023-05-31T05:02:05;20.20;55.20
45803;DHT22;31504;51.716;9.184;2023-05-31T05:05:06;20.20;55.10
45803;DHT22;31504;51.716;9.184;2023-05-31T05:08:07;20.20;55.00
45803;DHT22;31504;51.716;9.184;2023-05-31T05:11:07;20.20;55.00
45803;DHT22;31504;51.716;9.184;2023-05-31T05:14:08;20.20;55.00
45803;DHT22;31504;51.716;9.184;2023-05-31T05:17:09;20.20;55.00
45803;DHT22;31504;51.716;9.184;2023-05-31T05:20:10;20.20;54.90
45803;DHT22;31504;51.716;9.184;2023-05-31T05:23:10;20.20;54.90
45803;DHT22;31504;51.716;9.184;2023-05-31T05:26:11;20.20;54.90
45803;DHT22;31504;51.716;9.184;2023-05-31T05:29:11;20.20;54.90
45803;DHT22;31504;51.716;9.184;2023-05-31T05:32:12;20.60;53.90
45803;DHT22;31504;51.716;9.184;2023-05-31T05:35:12;20.80;52.60
45803;DHT22;31504;51.716;9.184;2023-05-31T05:38:13;20.60;52.20
45803;DHT22;31504;51.716;9.184;2023-05-31T05:41:13;20.40;54.00
45803;DHT22;31504;51.716;9.184;2023-05-31T05:44:13;20.30;54.50
45803;DHT22;31504;51.716;9.184;2023-05-31T05:47:14;20.20;55.10
45803;DHT22;31504;51.716;9.184;2023-05-31T05:50:14;20.20;54.60
45803;DHT22;31504;51.716;9.184;2023-05-31T05:53:15;20.20;54.70
45803;DHT22;31504;51.716;9.184;2023-05-31T05:56:15;20.20;54.70
45803;DHT22;31504;51.716;9.184;2023-05-31T05:59:19;20.20;54.80
45803;DHT22;31504;51.716;9.184;2023-05-31T06:02:19;20.20;54.80
45803;DHT22;31504;51.716;9.184;2023-05-31T06:05:20;20.20;54.80
45803;DHT22;31504;51.716;9.184;2023-05-31T06:08:25;20.20;54.70
45803;DHT22;31504;51.716;9.184;2023-05-31T06:11:26;20.20;54.70
45803;DHT22;31504;51.716;9.184;2023-05-31T06:14:26;20.30;54.60
45803;DHT22;31504;51.716;9.184;2023-05-31T06:17:27;20.30;54.40
45803;DHT22;31504;51.716;9.184;2023-05-31T06:20:27;20.40;54.40
45803;DHT22;31504;51.716;9.184;2023-05-31T06:23:28;20.50;54.20
45803;DHT22;31504;51.716;9.184;2023-05-31T06:26:29;20.70;53.50
45803;DHT22;31504;51.716;9.184;2023-05-31T06:29:29;20.60;53.80
45803;DHT22;31504;51.716;9.184;2023-05-31T06:32:30;20.40;54.10
45803;DHT22;31504;51.716;9.184;2023-05-31T06:35:30;20.40;54.20
45803;DHT22;31504;51.716;9.184;2023-05-31T06:38:31;20.40;54.40
45803;DHT22;31504;51.716;9.184;2023-05-31T06:41:31;20.40;54.40
45803;DHT22;31504;51.716;9.184;2023-05-31T06:44:34;20.40;54.40
45803;DHT22;31504;51.716;9.184;2023-05-31T06:47:35;20.40;54.40
45803;DHT22;31504;51.716;9.184;2023-05-31T06:50:35;20.40;54.30
45803;DHT22;31504;51.716;9.184;2023-05-31T06:53:36;20.50;54.20
45803;DHT22;31504;51.716;9.184;2023-05-31T06:56:36;20.50;54.10
45803;DHT22;31504;51.716;9.184;2023-05-31T06:59:37;20.60;54.10
45803;DHT22;31504;51.716;9.184;2023-05-31T07:02:37;20.60;54.00
45803;DHT22;31504;51.716;9.184;2023-05-31T07:05:37;20.50;54.00
45803;DHT22;31504;51.716;9.184;2023-05-31T07:08:40;20.50;54.00
45803;DHT22;31504;51.716;9.184;2023-05-31T07:11:41;20.50;54.00
45803;DHT22;31504;51.716;9.184;2023-05-31T07:14:42;20.60;54.00
45803;DHT22;31504;51.716;9.184;2023-05-31T07:17:42;20.60;54.00
45803;DHT22;31504;51.716;9.184;2023-05-31T07:20:43;20.60;54.00
45803;DHT22;31504;51.716;9.184;2023-05-31T07:23:44;20.60;54.00
45803;DHT22;31504;51.716;9.184;2023-05-31T07:26:44;20.60;54.10
45803;DHT22;31504;51.716;9.184;2023-05-31T07:29:44;20.60;54.00
45803;DHT22;31504;51.716;9.184;2023-05-31T07:32:45;20.60;53.90
45803;DHT22;31504;51.716;9.184;2023-05-31T07:35:45;20.60;54.10
45803;DHT22;31504;51.716;9.184;2023-05-31T07:38:46;20.60;54.00
45803;DHT22;31504;51.716;9.184;2023-05-31T07:41:46;20.60;54.00
45803;DHT22;31504;51.716;9.184;2023-05-31T07:44:46;20.60;54.00
45803;DHT22;31504;51.716;9.184;2023-05-31T07:47:50;20.60;54.10
45803;DHT22;31504;51.716;9.184;2023-05-31T07:50:52;20.70;54.10
45803;DHT22;31504;51.716;9.184;2023-05-31T07:53:53;20.60;54.00
45803;DHT22;31504;51.716;9.184;2023-05-31T07:56:53;20.60;54.10
45803;DHT22;31504;51.716;9.184;2023-05-31T07:59:53;20.60;54.10
45803;DHT22;31504;51.716;9.184;2023-05-31T08:02:54;20.60;53.90
45803;DHT22;31504;51.716;9.184;2023-05-31T08:05:55;20.60;54.20
45803;DHT22;31504;51.716;9.184;2023-05-31T08:08:55;20.60;54.20
45803;DHT22;31504;51.716;9.184;2023-05-31T08:11:55;20.80;54.40
45803;DHT22;31504;51.716;9.184;2023-05-31T08:14:56;20.90;53.90
45803;DHT22;31504;51.716;9.184;2023-05-31T08:17:56;21.00;54.00
45803;DHT22;31504;51.716;9.184;2023-05-31T08:20:59;20.90;54.00
45803;DHT22;31504;51.716;9.184;2023-05-31T08:23:59;20.90;54.00
45803;DHT22;31504;51.716;9.184;2023-05-31T08:27:00;20.90;53.90
45803;DHT22;31504;51.716;9.184;2023-05-31T08:30:01;20.80;54.20
45803;DHT22;31504;51.716;9.184;2023-05-31T08:33:02;20.80;54.20
45803;DHT22;31504;51.716;9.184;2023-05-31T08:36:02;20.80;54.20
45803;DHT22;31504;51.716;9.184;2023-05-31T08:39:04;20.80;54.00
45803;DHT22;31504;51.716;9.184;2023-05-31T08:42:15;20.80;54.50
45803;DHT22;31504;51.716;9.184;2023-05-31T08:45:17;20.80;54.10
45803;DHT22;31504;51.716;9.184;2023-05-31T08:48:33;20.80;54.00
45803;DHT22;31504;51.716;9.184;2023-05-31T08:51:35;20.80;53.90
45803;DHT22;31504;51.716;9.184;2023-05-31T08:54:36;20.90;53.80
45803;DHT22;31504;51.716;9.184;2023-05-31T08:57:37;20.90;53.80
45803;DHT22;31504;51.716;9.184;2023-05-31T09:00:38;20.90;54.10
45803;DHT22;31504;51.716;9.184;2023-05-31T09:03:38;20.90;53.70
45803;DHT22;31504;51.716;9.184;2023-05-31T09:06:40;20.90;53.00
45803;DHT22;31504;51.716;9.184;2023-05-31T09:09:41;20.90;52.70
45803;DHT22;31504;51.716;9.184;2023-05-31T09:12:41;20.90;52.70
45803;DHT22;31504;51.716;9.184;2023-05-31T09:15:42;20.80;52.60
45803;DHT22;31504;51.716;9.184;2023-05-31T09:18:44;20.90;52.80
45803;DHT22;31504;51.716;9.184;2023-05-31T09:21:44;20.90;52.70
45803;DHT22;31504;51.716;9.184;2023-05-31T09:24:48;20.80;52.20
45803;DHT22;31504;51.716;9.184;2023-05-31T09:27:49;20.80;52.20
45803;DHT22;31504;51.716;9.184;2023-05-31T09:31:02;20.80;52.50
45803;DHT22;31504;51.716;9.184;2023-05-31T09:34:03;20.90;52.30
45803;DHT22;31504;51.716;9.184;2023-05-31T09:37:04;20.80;52.80
45803;DHT22;31504;51.716;9.184;2023-05-31T09:40:04;20.90;52.50
45803;DHT22;31504;51.716;9.184;2023-05-31T09:43:05;20.90;52.70
45803;DHT22;31504;51.716;9.184;2023-05-31T09:46:13;20.90;52.30
45803;DHT22;31504;51.716;9.184;2023-05-31T09:49:13;20.80;52.20
45803;DHT22;31504;51.716;9.184;2023-05-31T09:52:14;20.90;52.00
45803;DHT22;31504;51.716;9.184;2023-05-31T09:55:15;20.80;52.00
45803;DHT22;31504;51.716;9.184;2023-05-31T09:58:27;20.80;51.90
45803;DHT22;31504;51.716;9.184;2023-05-31T10:01:34;20.80;52.30
45803;DHT22;31504;51.716;9.184;2023-05-31T10:04:34;20.90;52.50
45803;DHT22;31504;51.716;9.184;2023-05-31T10:07:36;20.90;52.70
45803;DHT22;31504;51.716;9.184;2023-05-31T10:10:36;20.90;53.00
45803;DHT22;31504;51.716;9.184;2023-05-31T10:13:37;20.90;53.30
45803;DHT22;31504;51.716;9.184;2023-05-31T10:16:45;20.90;54.00
45803;DHT22;31504;51.716;9.184;2023-05-31T10:19:48;20.90;53.30
45803;DHT22;31504;51.716;9.184;2023-05-31T10:22:52;20.90;53.40
45803;DHT22;31504;51.716;9.184;2023-05-31T10:29:14;20.90;53.40
45803;DHT22;31504;51.716;9.184;2023-05-31T10:32:18;21.00;53.40
45803;DHT22;31504;51.716;9.184;2023-05-31T10:35:19;20.90;53.40
45803;DHT22;31504;51.716;9.184;2023-05-31T10:38:21;21.00;53.50
45803;DHT22;31504;51.716;9.184;2023-05-31T10:41:25;21.00;53.40
45803;DHT22;31504;51.716;9.184;2023-05-31T10:44:30;21.00;53.40
45803;DHT22;31504;51.716;9.184;2023-05-31T10:47:35;21.00;53.60
45803;DHT22;31504;51.716;9.184;2023-05-31T10:50:57;21.00;53.60
45803;DHT22;31504;51.716;9.184;2023-05-31T10:53:57;21.00;53.60
45803;DHT22;31504;51.716;9.184;2023-05-31T10:56:58;21.00;53.60
45803;DHT22;31504;51.716;9.184;2023-05-31T10:59:59;21.00;53.60
45803;DHT22;31504;51.716;9.184;2023-05-31T11:02:59;21.10;53.60
45803;DHT22;31504;51.716;9.184;2023-05-31T11:06:01;21.00;53.70
45803;DHT22;31504;51.716;9.184;2023-05-31T11:12:05;21.10;53.90
45803;DHT22;31504;51.716;9.184;2023-05-31T11:15:11;21.10;53.20
45803;DHT22;31504;51.716;9.184;2023-05-31T11:18:14;21.10;53.70
45803;DHT22;31504;51.716;9.184;2023-05-31T11:27:48;21.10;53.10
45803;DHT22;31504;51.716;9.184;2023-05-31T11:31:04;21.20;52.70
45803;DHT22;31504;51.716;9.184;2023-05-31T11:34:17;21.10;52.40
45803;DHT22;31504;51.716;9.184;2023-05-31T11:37:18;21.10;52.30
45803;DHT22;31504;51.716;9.184;2023-05-31T11:40:18;21.20;52.40
45803;DHT22;31504;51.716;9.184;2023-05-31T11:43:19;21.20;51.70
45803;DHT22;31504;51.716;9.184;2023-05-31T11:46:23;21.20;51.80
45803;DHT22;31504;51.716;9.184;2023-05-31T11:49:23;21.20;51.90
45803;DHT22;31504;51.716;9.184;2023-05-31T11:52:24;21.20;52.00
45803;DHT22;31504;51.716;9.184;2023-05-31T11:55:29;21.20;52.10
45803;DHT22;31504;51.716;9.184;2023-05-31T11:58:30;21.20;52.10
45803;DHT22;31504;51.716;9.184;2023-05-31T12:01:37;21.20;52.20
45803;DHT22;31504;51.716;9.184;2023-05-31T12:04:40;21.20;52.30
45803;DHT22;31504;51.716;9.184;2023-05-31T12:07:41;21.20;52.30
45803;DHT22;31504;51.716;9.184;2023-05-31T12:10:42;21.30;52.40
45803;DHT22;31504;51.716;9.184;2023-05-31T12:13:42;21.30;52.20
45803;DHT22;31504;51.716;9.184;2023-05-31T12:16:43;21.40;52.00
45803;DHT22;31504;51.716;9.184;2023-05-31T12:19:46;21.30;51.80
45803;DHT22;31504;51.716;9.184;2023-05-31T12:22:47;21.30;51.90
45803;DHT22;31504;51.716;9.184;2023-05-31T12:25:48;21.30;51.80
45803;DHT22;31504;51.716;9.184;2023-05-31T12:28:49;21.30;51.80
45803;DHT22;31504;51.716;9.184;2023-05-31T12:31:50;21.30;51.90
45803;DHT22;31504;51.716;9.184;2023-05-31T12:35:02;21.30;52.00
45803;DHT22;31504;51.716;9.184;2023-05-31T12:38:03;21.30;51.90
45803;DHT22;31504;51.716;9.184;2023-05-31T12:41:04;21.40;51.90
45803;DHT22;31504;51.716;9.184;2023-05-31T12:47:08;21.40;51.60
45803;DHT22;31504;51.716;9.184;2023-05-31T12:50:08;21.40;51.40
45803;DHT22;31504;51.716;9.184;2023-05-31T12:53:09;21.40;51.50
45803;DHT22;31504;51.716;9.184;2023-05-31T12:56:10;21.40;51.50
45803;DHT22;31504;51.716;9.184;2023-05-31T12:59:10;21.40;51.50
45803;DHT22;31504;51.716;9.184;2023-05-31T13:02:11;21.40;51.40
45803;DHT22;31504;51.716;9.184;2023-05-31T13:05:12;21.40;51.30
45803;DHT22;31504;51.716;9.184;2023-05-31T13:08:12;21.30;51.50
45803;DHT22;31504;51.716;9.184;2023-05-31T13:11:12;21.30;51.40
45803;DHT22;31504;51.716;9.184;2023-05-31T13:14:13;21.40;51.50
45803;DHT22;31504;51.716;9.184;2023-05-31T13:17:14;21.40;51.30
45803;DHT22;31504;51.716;9.184;2023-05-31T13:20:17;21.40;51.20
45803;DHT22;31504;51.716;9.184;2023-05-31T13:23:18;21.40;51.20
45803;DHT22;31504;51.716;9.184;2023-05-31T13:26:19;21.30;51.60
45803;DHT22;31504;51.716;9.184;2023-05-31T13:29:20;21.40;50.90
45803;DHT22;31504;51.716;9.184;2023-05-31T13:32:22;21.40;51.00
45803;DHT22;31504;51.716;9.184;2023-05-31T13:35:22;21.40;51.00
45803;DHT22;31504;51.716;9.184;2023-05-31T13:38:23;21.50;50.60
45803;DHT22;31504;51.716;9.184;2023-05-31T13:41:23;21.50;50.80
45803;DHT22;31504;51.716;9.184;2023-05-31T13:44:24;21.50;50.50
45803;DHT22;31504;51.716;9.184;2023-05-31T13:47:24;21.40;51.20
45803;DHT22;31504;51.716;9.184;2023-05-31T13:50:25;21.40;51.10
45803;DHT22;31504;51.716;9.184;2023-05-31T13:53:26;21.40;51.00
45803;DHT22;31504;51.716;9.184;2023-05-31T13:56:26;21.50;50.70
45803;DHT22;31504;51.716;9.184;2023-05-31T13:59:27;21.60;50.40
45803;DHT22;31504;51.716;9.184;2023-05-31T14:02:27;21.60;50.30
45803;DHT22;31504;51.716;9.184;2023-05-31T14:05:28;21.60;50.50
45803;DHT22;31504;51.716;9.184;2023-05-31T14:08:29;21.60;50.70
45803;DHT22;31504;51.716;9.184;2023-05-31T14:11:30;21.60;50.80
45803;DHT22;31504;51.716;9.184;2023-05-31T14:14:31;21.50;50.90
45803;DHT22;31504;51.716;9.184;2023-05-31T14:17:31;21.50;50.90
45803;DHT22;31504;51.716;9.184;2023-05-31T14:20:32;21.60;50.80
45803;DHT22;31504;51.716;9.184;2023-05-31T14:23:32;21.50;51.10
45803;DHT22;31504;51.716;9.184;2023-05-31T14:26:34;21.50;51.20
45803;DHT22;31504;51.716;9.184;2023-05-31T14:29:35;21.50;52.00
45803;DHT22;31504;51.716;9.184;2023-05-31T14:32:35;21.40;53.80
45803;DHT22;31504;51.716;9.184;2023-05-31T14:35:36;21.50;53.60
45803;DHT22;31504;51.716;9.184;2023-05-31T14:38:36;21.40;52.70
45803;DHT22;31504;51.716;9.184;2023-05-31T14:41:37;21.50;52.80
45803;DHT22;31504;51.716;9.184;2023-05-31T14:44:37;21.50;52.70
45803;DHT22;31504;51.716;9.184;2023-05-31T14:47:38;21.40;52.70
45803;DHT22;31504;51.716;9.184;2023-05-31T14:50:38;21.30;53.40
45803;DHT22;31504;51.716;9.184;2023-05-31T14:53:38;21.40;53.00
45803;DHT22;31504;51.716;9.184;2023-05-31T14:56:39;21.40;52.80
45803;DHT22;31504;51.716;9.184;2023-05-31T14:59:39;21.30;53.00
45803;DHT22;31504;51.716;9.184;2023-05-31T15:02:40;21.40;53.00
45803;DHT22;31504;51.716;9.184;2023-05-31T15:05:40;21.40;52.80
45803;DHT22;31504;51.716;9.184;2023-05-31T15:08:41;21.30;52.50
45803;DHT22;31504;51.716;9.184;2023-05-31T15:11:42;21.30;52.70
45803;DHT22;31504;51.716;9.184;2023-05-31T15:14:42;21.40;52.60
45803;DHT22;31504;51.716;9.184;2023-05-31T15:17:43;21.50;52.30
45803;DHT22;31504;51.716;9.184;2023-05-31T15:20:43;21.50;52.00
45803;DHT22;31504;51.716;9.184;2023-05-31T15:23:44;21.40;52.00
45803;DHT22;31504;51.716;9.184;2023-05-31T15:26:44;21.40;52.40
45803;DHT22;31504;51.716;9.184;2023-05-31T15:29:45;21.40;52.20
45803;DHT22;31504;51.716;9.184;2023-05-31T15:32:45;21.40;52.20
45803;DHT22;31504;51.716;9.184;2023-05-31T15:35:46;21.40;52.40
45803;DHT22;31504;51.716;9.184;2023-05-31T15:38:48;21.40;52.30
45803;DHT22;31504;51.716;9.184;2023-05-31T15:41:48;21.40;52.40
45803;DHT22;31504;51.716;9.184;2023-05-31T15:44:49;21.50;52.00
45803;DHT22;31504;51.716;9.184;2023-05-31T15:47:50;21.50;51.80
45803;DHT22;31504;51.716;9.184;2023-05-31T15:50:50;21.50;52.10
45803;DHT22;31504;51.716;9.184;2023-05-31T15:53:51;21.40;51.40
45803;DHT22;31504;51.716;9.184;2023-05-31T15:56:51;21.40;51.50
45803;DHT22;31504;51.716;9.184;2023-05-31T15:59:53;21.40;51.40
45803;DHT22;31504;51.716;9.184;2023-05-31T16:02:55;21.50;51.10
45803;DHT22;31504;51.716;9.184;2023-05-31T16:05:55;21.50;50.90
45803;DHT22;31504;51.716;9.184;2023-05-31T16:08:55;21.50;50.90
45803;DHT22;31504;51.716;9.184;2023-05-31T16:11:57;21.50;50.90
45803;DHT22;31504;51.716;9.184;2023-05-31T16:14:58;21.60;51.30
45803;DHT22;31504;51.716;9.184;2023-05-31T16:17:59;21.60;51.40
45803;DHT22;31504;51.716;9.184;2023-05-31T16:21:00;21.50;51.30
45803;DHT22;31504;51.716;9.184;2023-05-31T16:24:00;21.40;51.40
45803;DHT22;31504;51.716;9.184;2023-05-31T16:27:01;21.40;51.20
45803;DHT22;31504;51.716;9.184;2023-05-31T16:30:03;21.40;51.00
45803;DHT22;31504;51.716;9.184;2023-05-31T16:33:04;21.40;50.90
45803;DHT22;31504;51.716;9.184;2023-05-31T16:36:05;21.50;51.60
45803;DHT22;31504;51.716;9.184;2023-05-31T16:39:06;21.50;50.70
45803;DHT22;31504;51.716;9.184;2023-05-31T16:42:08;21.50;51.00
45803;DHT22;31504;51.716;9.184;2023-05-31T16:45:09;21.60;50.90
45803;DHT22;31504;51.716;9.184;2023-05-31T16:48:09;21.50;50.90
45803;DHT22;31504;51.716;9.184;2023-05-31T16:51:10;21.50;50.90
45803;DHT22;31504;51.716;9.184;2023-05-31T16:54:10;21.50;51.00
45803;DHT22;31504;51.716;9.184;2023-05-31T16:57:11;21.50;51.60
45803;DHT22;31504;51.716;9.184;2023-05-31T17:00:12;21.60;52.40
45803;DHT22;31504;51.716;9.184;2023-05-31T17:03:13;21.70;52.00
45803;DHT22;31504;51.716;9.184;2023-05-31T17:06:13;21.70;52.20
45803;DHT22;31504;51.716;9.184;2023-05-31T17:09:14;21.70;52.40
45803;DHT22;31504;51.716;9.184;2023-05-31T17:12:15;21.70;52.10
45803;DHT22;31504;51.716;9.184;2023-05-31T17:15:15;21.60;52.30
45803;DHT22;31504;51.716;9.184;2023-05-31T17:18:16;21.60;52.10
45803;DHT22;31504;51.716;9.184;2023-05-31T17:21:16;21.60;51.70
45803;DHT22;31504;51.716;9.184;2023-05-31T17:24:17;21.50;51.50
45803;DHT22;31504;51.716;9.184;2023-05-31T17:27:17;21.50;51.50
45803;DHT22;31504;51.716;9.184;2023-05-31T17:30:18;21.50;51.30
45803;DHT22;31504;51.716;9.184;2023-05-31T17:33:18;21.60;52.00
45803;DHT22;31504;51.716;9.184;2023-05-31T17:36:19;21.60;51.30
45803;DHT22;31504;51.716;9.184;2023-05-31T17:39:19;21.60;51.30
45803;DHT22;31504;51.716;9.184;2023-05-31T17:42:19;21.60;51.40
45803;DHT22;31504;51.716;9.184;2023-05-31T17:45:23;21.60;51.40
45803;DHT22;31504;51.716;9.184;2023-05-31T17:48:23;21.60;51.60
45803;DHT22;31504;51.716;9.184;2023-05-31T17:51:24;21.60;51.50
45803;DHT22;31504;51.716;9.184;2023-05-31T17:54:25;21.50;51.50
45803;DHT22;31504;51.716;9.184;2023-05-31T17:57:25;21.50;51.40
45803;DHT22;31504;51.716;9.184;2023-05-31T18:00:26;21.50;51.50
45803;DHT22;31504;51.716;9.184;2023-05-31T18:03:26;21.50;51.40
45803;DHT22;31504;51.716;9.184;2023-05-31T18:06:27;21.50;51.40
45803;DHT22;31504;51.716;9.184;2023-05-31T18:09:27;21.60;51.60
45803;DHT22;31504;51.716;9.184;2023-05-31T18:12:28;21.50;51.50
45803;DHT22;31504;51.716;9.184;2023-05-31T18:15:28;21.50;51.50
45803;DHT22;31504;51.716;9.184;2023-05-31T18:18:29;21.50;51.80
45803;DHT22;31504;51.716;9.184;2023-05-31T18:21:29;21.60;51.90
45803;DHT22;31504;51.716;9.184;2023-05-31T18:24:30;21.50;52.40
45803;DHT22;31504;51.716;9.184;2023-05-31T18:27:30;21.60;51.90
45803;DHT22;31504;51.716;9.184;2023-05-31T18:30:32;21.60;52.00
45803;DHT22;31504;51.716;9.184;2023-05-31T18:33:33;21.50;52.00
45803;DHT22;31504;51.716;9.184;2023-05-31T18:36:34;21.50;52.10
45803;DHT22;31504;51.716;9.184;2023-05-31T18:39:39;21.50;52.40
45803;DHT22;31504;51.716;9.184;2023-05-31T18:42:39;21.50;52.60
45803;DHT22;31504;51.716;9.184;2023-05-31T18:45:40;21.50;52.90
45803;DHT22;31504;51.716;9.184;2023-05-31T18:48:40;21.50;52.80
45803;DHT22;31504;51.716;9.184;2023-05-31T18:51:41;21.40;52.90
45803;DHT22;31504;51.716;9.184;2023-05-31T18:54:41;21.40;53.00
45803;DHT22;31504;51.716;9.184;2023-05-31T18:57:42;21.40;53.00
45803;DHT22;31504;51.716;9.184;2023-05-31T19:00:43;21.40;53.20
45803;DHT22;31504;51.716;9.184;2023-05-31T19:03:46;21.40;53.20
45803;DHT22;31504;51.716;9.184;2023-05-31T19:06:46;21.40;53.20
45803;DHT22;31504;51.716;9.184;2023-05-31T19:09:48;21.40;53.10
45803;DHT22;31504;51.716;9.184;2023-05-31T19:12:48;21.30;53.20
45803;DHT22;31504;51.716;9.184;2023-05-31T19:15:49;21.30;53.30
45803;DHT22;31504;51.716;9.184;2023-05-31T19:18:49;21.30;53.30
45803;DHT22;31504;51.716;9.184;2023-05-31T19:21:50;21.30;53.30
45803;DHT22;31504;51.716;9.184;2023-05-31T19:24:51;21.30;53.30
45803;DHT22;31504;51.716;9.184;2023-05-31T19:27:52;21.30;53.30